sensor_id;sensor_type;location;lat;lon;timestamp;pressure;altitude;pressure_sealevel;temperature;humidity
53514;BME280;39768;54.148;12.174;2023-04-08T00:02:03;102300.38;;;8.41;100.00
53514;BME280;39768;54.148;12.174;2023-04-08T00:06:05;102292.34;;;8.37;100.00
53514;BME280;39768;54.148;12.174;2023-04-08T00:10:07;102296.88;;;8.03;100.00
53514;BME280;39768;54.148;12.174;2023-04-08T00:14:08;102289.63;;;8.34;100.00
53514;BME280;39768;54.148;12.174;2023-04-08T00:18:10;102297.53;;;8.32;100.00
53514;BME280;39768;54.148;12.174;2023-04-08T00:22:12;102307.53;;;8.06;100.00
53514;BME280;39768;54.148;12.174;2023-04-08T00:26:13;102301.88;;;7.90;100.00
53514;BME280;39768;54.148;12.174;2023-04-08T00:30:16;102307.16;;;8.72;100.00
53514;BME280;39768;54.148;12.174;2023-04-08T00:34:19;102310.03;;;7.99;100.00
53514;BME280;39768;54.148;12.174;2023-04-08T00:38:21;102311.22;;;8.13;100.00
53514;BME280;39768;54.148;12.174;2023-04-08T00:42:22;102308.72;;;8.21;100.00
53514;BME280;39768;54.148;12.174;2023-04-08T00:46:24;102305.81;;;8.49;100.00
53514;BME280;39768;54.148;12.174;2023-04-08T00:50:27;102312.28;;;8.23;100.00
53514;BME280;39768;54.148;12.174;2023-04-08T00:54:29;102306.63;;;8.45;100.00
53514;BME280;39768;54.148;12.174;2023-04-08T00:58:31;102306.84;;;9.05;100.00
53514;BME280;39768;54.148;12.174;2023-04-08T01:02:41;102306.94;;;8.20;100.00
53514;BME280;39768;54.148;12.174;2023-04-08T01:07:26;102311.25;;;8.57;100.00
53514;BME280;39768;54.148;12.174;2023-04-08T01:11:30;102312.59;;;8.80;100.00
53514;BME280;39768;54.148;12.174;2023-04-08T01:15:34;102314.34;;;8.79;100.00
53514;BME280;39768;54.148;12.174;2023-04-08T01:19:38;102309.56;;;8.60;100.00
53514;BME280;39768;54.148;12.174;2023-04-08T01:28:04;102310.31;;;9.00;100.00
53514;BME280;39768;54.148;12.174;2023-04-08T01:32:08;102306.56;;;9.40;100.00
53514;BME280;39768;54.148;12.174;2023-04-08T01:36:10;102314.44;;;8.39;100.00
53514;BME280;39768;54.148;12.174;2023-04-08T01:40:12;102312.75;;;9.40;100.00
53514;BME280;39768;54.148;12.174;2023-04-08T01:44:14;102317.66;;;9.70;100.00
53514;BME280;39768;54.148;12.174;2023-04-08T01:48:18;102321.41;;;8.35;100.00
53514;BME280;39768;54.148;12.174;2023-04-08T01:52:20;102322.94;;;8.26;100.00
53514;BME280;39768;54.148;12.174;2023-04-08T01:56:25;102314.38;;;8.36;100.00
53514;BME280;39768;54.148;12.174;2023-04-08T02:00:30;102314.50;;;8.42;100.00
53514;BME280;39768;54.148;12.174;2023-04-08T02:04:33;102314.34;;;8.79;100.00
53514;BME280;39768;54.148;12.174;2023-04-08T02:08:35;102312.06;;;9.53;100.00
53514;BME280;39768;54.148;12.174;2023-04-08T02:12:36;102321.97;;;9.11;100.00
53514;BME280;39768;54.148;12.174;2023-04-08T02:16:53;102320.53;;;8.80;100.00
53514;BME280;39768;54.148;12.174;2023-04-08T02:21:08;102313.22;;;9.15;100.00
53514;BME280;39768;54.148;12.174;2023-04-08T02:25:14;102312.50;;;9.25;100.00
53514;BME280;39768;54.148;12.174;2023-04-08T02:29:16;102309.66;;;8.65;100.00
53514;BME280;39768;54.148;12.174;2023-04-08T02:33:20;102322.00;;;9.12;100.00
53514;BME280;39768;54.148;12.174;2023-04-08T02:37:24;102309.41;;;9.52;100.00
53514;BME280;39768;54.148;12.174;2023-04-08T02:41:27;102319.28;;;8.60;100.00
53514;BME280;39768;54.148;12.174;2023-04-08T02:45:31;102322.53;;;9.43;100.00
53514;BME280;39768;54.148;12.174;2023-04-08T02:49:33;102326.00;;;9.40;100.00
53514;BME280;39768;54.148;12.174;2023-04-08T02:53:35;102324.78;;;9.18;100.00
53514;BME280;39768;54.148;12.174;2023-04-08T02:57:38;102330.03;;;9.17;100.00
53514;BME280;39768;54.148;12.174;2023-04-08T03:01:41;102336.56;;;9.95;100.00
53514;BME280;39768;54.148;12.174;2023-04-08T03:05:43;102341.50;;;9.70;100.00
53514;BME280;39768;54.148;12.174;2023-04-08T03:09:44;102334.59;;;9.81;100.00
53514;BME280;39768;54.148;12.174;2023-04-08T03:13:46;102343.09;;;8.61;100.00
53514;BME280;39768;54.148;12.174;2023-04-08T03:17:47;102350.84;;;8.96;100.00
53514;BME280;39768;54.148;12.174;2023-04-08T03:21:49;102346.94;;;8.77;100.00
53514;BME280;39768;54.148;12.174;2023-04-08T03:25:50;102356.19;;;8.54;100.00
53514;BME280;39768;54.148;12.174;2023-04-08T03:29:51;102344.81;;;8.19;100.00
53514;BME280;39768;54.148;12.174;2023-04-08T03:33:53;102346.50;;;8.13;100.00
53514;BME280;39768;54.148;12.174;2023-04-08T03:37:54;102349.63;;;8.35;100.00
53514;BME280;39768;54.148;12.174;2023-04-08T03:41:56;102344.41;;;7.99;100.00
53514;BME280;39768;54.148;12.174;2023-04-08T03:46:00;102341.06;;;8.07;100.00
53514;BME280;39768;54.148;12.174;2023-04-08T03:50:01;102347.41;;;8.14;100.00
53514;BME280;39768;54.148;12.174;2023-04-08T03:54:03;102349.91;;;8.48;100.00
53514;BME280;39768;54.148;12.174;2023-04-08T03:58:05;102363.84;;;8.40;100.00
53514;BME280;39768;54.148;12.174;2023-04-08T04:02:07;102363.25;;;8.53;100.00
53514;BME280;39768;54.148;12.174;2023-04-08T04:06:09;102365.22;;;9.10;100.00
53514;BME280;39768;54.148;12.174;2023-04-08T04:10:10;102365.16;;;8.60;100.00
53514;BME280;39768;54.148;12.174;2023-04-08T04:14:12;102370.34;;;8.56;100.00
53514;BME280;39768;54.148;12.174;2023-04-08T04:18:13;102377.16;;;8.43;100.00
53514;BME280;39768;54.148;12.174;2023-04-08T04:22:15;102373.66;;;8.88;100.00
53514;BME280;39768;54.148;12.174;2023-04-08T04:26:16;102386.44;;;8.66;100.00
53514;BME280;39768;54.148;12.174;2023-04-08T04:30:17;102382.78;;;8.58;100.00
53514;BME280;39768;54.148;12.174;2023-04-08T04:34:19;102393.28;;;8.55;100.00
53514;BME280;39768;54.148;12.174;2023-04-08T04:38:21;102393.25;;;8.14;100.00
53514;BME280;39768;54.148;12.174;2023-04-08T04:42:22;102397.50;;;8.47;100.00
53514;BME280;39768;54.148;12.174;2023-04-08T04:46:24;102392.59;;;7.86;100.00
53514;BME280;39768;54.148;12.174;2023-04-08T04:50:25;102397.00;;;7.87;100.00
53514;BME280;39768;54.148;12.174;2023-04-08T04:54:26;102402.91;;;8.12;100.00
53514;BME280;39768;54.148;12.174;2023-04-08T04:58:28;102405.34;;;8.05;100.00
53514;BME280;39768;54.148;12.174;2023-04-08T05:02:30;102403.06;;;8.20;100.00
53514;BME280;39768;54.148;12.174;2023-04-08T05:06:33;102413.06;;;8.32;100.00
53514;BME280;39768;54.148;12.174;2023-04-08T05:10:34;102407.53;;;8.23;100.00
53514;BME280;39768;54.148;12.174;2023-04-08T05:14:35;102413.25;;;9.28;100.00
53514;BME280;39768;54.148;12.174;2023-04-08T05:18:37;102411.97;;;9.54;100.00
53514;BME280;39768;54.148;12.174;2023-04-08T05:22:38;102412.41;;;9.82;100.00
53514;BME280;39768;54.148;12.174;2023-04-08T05:26:40;102420.06;;;8.30;100.00
53514;BME280;39768;54.148;12.174;2023-04-08T05:30:41;102423.94;;;8.44;100.00
53514;BME280;39768;54.148;12.174;2023-04-08T05:34:43;102430.47;;;8.61;100.00
53514;BME280;39768;54.148;12.174;2023-04-08T05:38:45;102432.44;;;8.31;100.00
53514;BME280;39768;54.148;12.174;2023-04-08T05:42:46;102432.63;;;9.24;100.00
53514;BME280;39768;54.148;12.174;2023-04-08T05:46:47;102436.00;;;8.33;100.00
53514;BME280;39768;54.148;12.174;2023-04-08T05:50:49;102449.06;;;8.25;100.00
53514;BME280;39768;54.148;12.174;2023-04-08T05:54:50;102449.97;;;8.27;100.00
53514;BME280;39768;54.148;12.174;2023-04-08T05:58:52;102451.09;;;9.21;100.00
53514;BME280;39768;54.148;12.174;2023-04-08T06:02:53;102449.44;;;9.26;100.00
53514;BME280;39768;54.148;12.174;2023-04-08T06:06:55;102447.84;;;8.89;100.00
53514;BME280;39768;54.148;12.174;2023-04-08T06:11:01;102455.69;;;8.84;100.00
53514;BME280;39768;54.148;12.174;2023-04-08T06:15:05;102462.41;;;8.31;100.00
53514;BME280;39768;54.148;12.174;2023-04-08T06:19:07;102458.66;;;9.46;100.00
53514;BME280;39768;54.148;12.174;2023-04-08T06:23:08;102466.31;;;9.30;100.00
53514;BME280;39768;54.148;12.174;2023-04-08T06:27:10;102475.22;;;8.90;100.00
53514;BME280;39768;54.148;12.174;2023-04-08T06:31:11;102477.66;;;9.24;100.00
53514;BME280;39768;54.148;12.174;2023-04-08T06:35:13;102478.72;;;9.32;100.00
53514;BME280;39768;54.148;12.174;2023-04-08T06:39:14;102480.28;;;8.40;100.00
53514;BME280;39768;54.148;12.174;2023-04-08T06:43:17;102476.25;;;8.98;100.00
53514;BME280;39768;54.148;12.174;2023-04-08T06:47:18;102487.00;;;8.26;100.00
53514;BME280;39768;54.148;12.174;2023-04-08T06:51:19;102502.09;;;7.95;100.00
53514;BME280;39768;54.148;12.174;2023-04-08T06:55:21;102502.00;;;8.27;100.00
53514;BME280;39768;54.148;12.174;2023-04-08T06:59:22;102508.72;;;8.12;100.00
53514;BME280;39768;54.148;12.174;2023-04-08T07:03:24;102521.47;;;8.29;100.00
53514;BME280;39768;54.148;12.174;2023-04-08T07:07:25;102514.50;;;8.32;100.00
53514;BME280;39768;54.148;12.174;2023-04-08T07:11:27;102513.13;;;8.48;100.00
53514;BME280;39768;54.148;12.174;2023-04-08T07:15:28;102517.81;;;8.61;100.00
53514;BME280;39768;54.148;12.174;2023-04-08T07:19:30;102520.81;;;9.17;100.00
53514;BME280;39768;54.148;12.174;2023-04-08T07:23:31;102513.81;;;9.19;100.00
53514;BME280;39768;54.148;12.174;2023-04-08T07:27:33;102522.56;;;8.76;100.00
53514;BME280;39768;54.148;12.174;2023-04-08T07:31:34;102514.41;;;9.07;100.00
53514;BME280;39768;54.148;12.174;2023-04-08T07:35:36;102526.84;;;8.69;100.00
53514;BME280;39768;54.148;12.174;2023-04-08T07:39:38;102523.84;;;9.37;100.00
53514;BME280;39768;54.148;12.174;2023-04-08T07:43:39;102534.38;;;8.17;100.00
53514;BME280;39768;54.148;12.174;2023-04-08T07:47:41;102527.16;;;9.25;100.00
53514;BME280;39768;54.148;12.174;2023-04-08T07:51:42;102536.06;;;8.87;100.00
53514;BME280;39768;54.148;12.174;2023-04-08T07:55:43;102532.94;;;9.48;100.00
53514;BME280;39768;54.148;12.174;2023-04-08T07:59:45;102539.16;;;8.67;100.00
53514;BME280;39768;54.148;12.174;2023-04-08T08:03:50;102536.44;;;9.95;100.00
53514;BME280;39768;54.148;12.174;2023-04-08T08:07:53;102538.97;;;9.41;100.00
53514;BME280;39768;54.148;12.174;2023-04-08T08:11:54;102546.75;;;8.91;100.00
53514;BME280;39768;54.148;12.174;2023-04-08T08:15:56;102539.25;;;9.12;100.00
53514;BME280;39768;54.148;12.174;2023-04-08T08:19:58;102536.38;;;9.00;100.00
53514;BME280;39768;54.148;12.174;2023-04-08T08:24:00;102538.63;;;9.69;100.00
53514;BME280;39768;54.148;12.174;2023-04-08T08:28:02;102541.00;;;10.02;100.00
53514;BME280;39768;54.148;12.174;2023-04-08T08:32:03;102541.66;;;9.89;100.00
53514;BME280;39768;54.148;12.174;2023-04-08T08:36:05;102553.25;;;9.47;100.00
53514;BME280;39768;54.148;12.174;2023-04-08T08:40:07;102564.66;;;9.01;100.00
53514;BME280;39768;54.148;12.174;2023-04-08T08:44:09;102570.03;;;9.04;100.00
53514;BME280;39768;54.148;12.174;2023-04-08T08:48:12;102562.97;;;10.45;100.00
53514;BME280;39768;54.148;12.174;2023-04-08T08:52:16;102569.00;;;10.35;100.00
53514;BME280;39768;54.148;12.174;2023-04-08T08:56:20;102575.03;;;10.26;100.00
53514;BME280;39768;54.148;12.174;2023-04-08T09:00:39;102574.25;;;9.38;100.00
53514;BME280;39768;54.148;12.174;2023-04-08T09:04:55;102574.53;;;9.99;100.00
53514;BME280;39768;54.148;12.174;2023-04-08T09:08:57;102570.19;;;10.55;100.00
53514;BME280;39768;54.148;12.174;2023-04-08T09:12:58;102576.22;;;9.94;100.00
53514;BME280;39768;54.148;12.174;2023-04-08T09:17:00;102582.69;;;10.11;100.00
53514;BME280;39768;54.148;12.174;2023-04-08T09:21:04;102593.22;;;10.05;100.00
53514;BME280;39768;54.148;12.174;2023-04-08T09:25:27;102577.84;;;9.87;100.00
53514;BME280;39768;54.148;12.174;2023-04-08T09:29:29;102588.59;;;11.02;100.00
53514;BME280;39768;54.148;12.174;2023-04-08T09:33:35;102584.16;;;9.92;100.00
53514;BME280;39768;54.148;12.174;2023-04-08T09:37:36;102593.06;;;11.74;100.00
53514;BME280;39768;54.148;12.174;2023-04-08T09:41:38;102593.06;;;11.03;100.00
53514;BME280;39768;54.148;12.174;2023-04-08T09:45:40;102590.59;;;10.57;100.00
53514;BME280;39768;54.148;12.174;2023-04-08T09:49:46;102600.22;;;10.01;100.00
53514;BME280;39768;54.148;12.174;2023-04-08T09:54:00;102604.69;;;11.79;100.00
53514;BME280;39768;54.148;12.174;2023-04-08T09:58:14;102599.84;;;12.26;97.93
53514;BME280;39768;54.148;12.174;2023-04-08T10:02:23;102598.66;;;11.95;100.00
53514;BME280;39768;54.148;12.174;2023-04-08T10:06:27;102602.31;;;11.32;99.17
53514;BME280;39768;54.148;12.174;2023-04-08T10:10:30;102602.31;;;12.06;97.78
53514;BME280;39768;54.148;12.174;2023-04-08T10:14:31;102603.13;;;11.97;99.70
53514;BME280;39768;54.148;12.174;2023-04-08T10:18:33;102603.72;;;12.66;93.87
53514;BME280;39768;54.148;12.174;2023-04-08T10:22:45;102607.84;;;10.82;100.00
53514;BME280;39768;54.148;12.174;2023-04-08T10:26:47;102614.63;;;11.95;100.00
53514;BME280;39768;54.148;12.174;2023-04-08T10:30:55;102606.81;;;11.38;100.00
53514;BME280;39768;54.148;12.174;2023-04-08T10:34:56;102610.06;;;11.83;100.00
53514;BME280;39768;54.148;12.174;2023-04-08T10:38:58;102607.09;;;12.47;94.79
53514;BME280;39768;54.148;12.174;2023-04-08T10:42:59;102604.69;;;12.76;93.75
53514;BME280;39768;54.148;12.174;2023-04-08T10:47:01;102611.41;;;11.49;99.19
53514;BME280;39768;54.148;12.174;2023-04-08T10:51:04;102606.47;;;10.54;100.00
53514;BME280;39768;54.148;12.174;2023-04-08T10:55:06;102621.09;;;10.81;100.00
53514;BME280;39768;54.148;12.174;2023-04-08T10:59:07;102610.16;;;11.21;100.00
53514;BME280;39768;54.148;12.174;2023-04-08T11:03:09;102614.50;;;11.84;100.00
53514;BME280;39768;54.148;12.174;2023-04-08T11:07:14;102602.75;;;12.55;100.00
53514;BME280;39768;54.148;12.174;2023-04-08T11:11:18;102604.88;;;11.97;97.58
53514;BME280;39768;54.148;12.174;2023-04-08T11:15:20;102606.88;;;12.19;100.00
53514;BME280;39768;54.148;12.174;2023-04-08T11:19:23;102598.50;;;12.81;94.60
53514;BME280;39768;54.148;12.174;2023-04-08T11:23:24;102610.44;;;12.21;100.00
53514;BME280;39768;54.148;12.174;2023-04-08T11:27:26;102600.41;;;13.00;93.65
53514;BME280;39768;54.148;12.174;2023-04-08T11:31:28;102610.94;;;12.81;91.30
53514;BME280;39768;54.148;12.174;2023-04-08T11:35:30;102622.31;;;11.71;94.82
53514;BME280;39768;54.148;12.174;2023-04-08T11:39:32;102610.59;;;12.36;96.95
53514;BME280;39768;54.148;12.174;2023-04-08T11:43:33;102608.53;;;12.08;96.00
53514;BME280;39768;54.148;12.174;2023-04-08T11:47:36;102611.09;;;13.02;92.25
53514;BME280;39768;54.148;12.174;2023-04-08T11:51:57;102622.84;;;12.19;97.63
53514;BME280;39768;54.148;12.174;2023-04-08T11:56:17;102612.22;;;12.22;94.84
53514;BME280;39768;54.148;12.174;2023-04-08T12:00:19;102618.31;;;13.23;93.72
53514;BME280;39768;54.148;12.174;2023-04-08T12:04:20;102614.47;;;12.78;91.47
53514;BME280;39768;54.148;12.174;2023-04-08T12:08:22;102613.66;;;12.90;93.75
53514;BME280;39768;54.148;12.174;2023-04-08T12:12:23;102618.91;;;12.75;94.27
53514;BME280;39768;54.148;12.174;2023-04-08T12:16:25;102620.00;;;11.98;95.71
53514;BME280;39768;54.148;12.174;2023-04-08T12:20:27;102621.19;;;12.30;99.35
53514;BME280;39768;54.148;12.174;2023-04-08T12:24:29;102617.41;;;13.16;94.55
53514;BME280;39768;54.148;12.174;2023-04-08T12:28:30;102615.84;;;13.61;88.11
53514;BME280;39768;54.148;12.174;2023-04-08T12:32:31;102621.94;;;12.19;96.95
53514;BME280;39768;54.148;12.174;2023-04-08T12:36:33;102616.47;;;13.13;91.14
53514;BME280;39768;54.148;12.174;2023-04-08T12:40:35;102614.84;;;12.15;94.97
53514;BME280;39768;54.148;12.174;2023-04-08T12:44:36;102616.09;;;11.70;100.00
53514;BME280;39768;54.148;12.174;2023-04-08T12:48:38;102618.13;;;12.89;94.66
53514;BME280;39768;54.148;12.174;2023-04-08T12:52:39;102619.28;;;12.17;96.37
53514;BME280;39768;54.148;12.174;2023-04-08T12:56:40;102618.59;;;12.38;95.91
53514;BME280;39768;54.148;12.174;2023-04-08T13:00:43;102610.88;;;12.73;97.06
53514;BME280;39768;54.148;12.174;2023-04-08T13:04:46;102606.03;;;13.57;91.47
53514;BME280;39768;54.148;12.174;2023-04-08T13:08:49;102607.13;;;14.45;86.15
53514;BME280;39768;54.148;12.174;2023-04-08T13:12:51;102614.66;;;13.08;89.41
53514;BME280;39768;54.148;12.174;2023-04-08T13:16:53;102612.34;;;13.85;89.95
53514;BME280;39768;54.148;12.174;2023-04-08T13:20:54;102605.13;;;13.49;90.97
53514;BME280;39768;54.148;12.174;2023-04-08T13:24:56;102606.19;;;14.27;82.97
53514;BME280;39768;54.148;12.174;2023-04-08T13:28:57;102604.41;;;14.21;85.96
53514;BME280;39768;54.148;12.174;2023-04-08T13:32:59;102608.00;;;12.49;98.49
53514;BME280;39768;54.148;12.174;2023-04-08T13:37:00;102611.25;;;13.29;95.41
53514;BME280;39768;54.148;12.174;2023-04-08T13:41:02;102610.31;;;13.23;93.82
53514;BME280;39768;54.148;12.174;2023-04-08T13:45:04;102609.50;;;13.31;92.08
53514;BME280;39768;54.148;12.174;2023-04-08T13:49:06;102613.19;;;13.64;90.16
53514;BME280;39768;54.148;12.174;2023-04-08T13:53:07;102604.19;;;13.42;95.27
53514;BME280;39768;54.148;12.174;2023-04-08T13:57:09;102599.94;;;14.26;85.70
53514;BME280;39768;54.148;12.174;2023-04-08T14:01:10;102598.97;;;13.63;88.36
53514;BME280;39768;54.148;12.174;2023-04-08T14:05:12;102597.97;;;13.40;87.59
53514;BME280;39768;54.148;12.174;2023-04-08T14:09:13;102600.91;;;14.48;84.61
53514;BME280;39768;54.148;12.174;2023-04-08T14:13:14;102591.91;;;14.02;81.24
53514;BME280;39768;54.148;12.174;2023-04-08T14:17:16;102595.28;;;13.38;87.49
53514;BME280;39768;54.148;12.174;2023-04-08T14:21:17;102597.31;;;12.41;98.21
53514;BME280;39768;54.148;12.174;2023-04-08T14:25:19;102594.97;;;12.85;93.75
53514;BME280;39768;54.148;12.174;2023-04-08T14:29:20;102590.97;;;13.71;90.16
53514;BME280;39768;54.148;12.174;2023-04-08T14:33:22;102588.28;;;13.72;88.47
53514;BME280;39768;54.148;12.174;2023-04-08T14:37:23;102585.63;;;13.80;89.58
53514;BME280;39768;54.148;12.174;2023-04-08T14:41:25;102588.34;;;13.94;83.21
53514;BME280;39768;54.148;12.174;2023-04-08T14:45:27;102584.81;;;14.16;83.33
53514;BME280;39768;54.148;12.174;2023-04-08T14:49:28;102589.31;;;14.64;79.65
53514;BME280;39768;54.148;12.174;2023-04-08T14:53:30;102581.16;;;15.16;77.55
53514;BME280;39768;54.148;12.174;2023-04-08T14:57:31;102584.75;;;13.86;85.72
53514;BME280;39768;54.148;12.174;2023-04-08T15:01:33;102583.06;;;14.49;82.56
53514;BME280;39768;54.148;12.174;2023-04-08T15:05:34;102587.97;;;13.02;87.72
53514;BME280;39768;54.148;12.174;2023-04-08T15:09:37;102589.31;;;14.51;81.40
53514;BME280;39768;54.148;12.174;2023-04-08T15:13:38;102591.97;;;14.58;79.35
53514;BME280;39768;54.148;12.174;2023-04-08T15:17:39;102584.84;;;14.62;78.25
53514;BME280;39768;54.148;12.174;2023-04-08T15:21:41;102585.72;;;14.21;81.20
53514;BME280;39768;54.148;12.174;2023-04-08T15:25:42;102592.72;;;13.69;86.22
53514;BME280;39768;54.148;12.174;2023-04-08T15:29:44;102592.81;;;14.04;83.13
53514;BME280;39768;54.148;12.174;2023-04-08T15:33:45;102600.75;;;13.64;85.96
53514;BME280;39768;54.148;12.174;2023-04-08T15:37:48;102590.13;;;14.01;83.19
53514;BME280;39768;54.148;12.174;2023-04-08T15:41:50;102597.25;;;13.99;82.59
53514;BME280;39768;54.148;12.174;2023-04-08T15:45:51;102602.63;;;14.20;78.25
53514;BME280;39768;54.148;12.174;2023-04-08T15:49:53;102605.03;;;13.29;82.81
53514;BME280;39768;54.148;12.174;2023-04-08T15:53:56;102612.34;;;13.85;83.66
53514;BME280;39768;54.148;12.174;2023-04-08T15:57:57;102613.09;;;13.41;84.71
53514;BME280;39768;54.148;12.174;2023-04-08T16:01:59;102610.41;;;13.38;86.60
53514;BME280;39768;54.148;12.174;2023-04-08T16:06:01;102611.91;;;12.90;87.64
53514;BME280;39768;54.148;12.174;2023-04-08T16:10:02;102609.63;;;13.65;86.03
53514;BME280;39768;54.148;12.174;2023-04-08T16:14:04;102612.84;;;13.06;90.33
53514;BME280;39768;54.148;12.174;2023-04-08T16:18:05;102618.50;;;13.59;87.93
53514;BME280;39768;54.148;12.174;2023-04-08T16:22:08;102611.91;;;12.93;91.30
53514;BME280;39768;54.148;12.174;2023-04-08T16:26:09;102618.31;;;13.17;86.44
53514;BME280;39768;54.148;12.174;2023-04-08T16:30:11;102625.31;;;13.08;89.72
53514;BME280;39768;54.148;12.174;2023-04-08T16:34:12;102627.59;;;12.52;94.98
53514;BME280;39768;54.148;12.174;2023-04-08T16:38:14;102633.09;;;12.74;92.87
53514;BME280;39768;54.148;12.174;2023-04-08T16:42:15;102625.91;;;12.63;92.71
53514;BME280;39768;54.148;12.174;2023-04-08T16:46:17;102636.69;;;12.76;93.66
53514;BME280;39768;54.148;12.174;2023-04-08T16:50:18;102639.25;;;12.66;93.90
53514;BME280;39768;54.148;12.174;2023-04-08T16:54:20;102644.56;;;12.66;92.60
53514;BME280;39768;54.148;12.174;2023-04-08T16:58:22;102643.50;;;12.42;91.19
53514;BME280;39768;54.148;12.174;2023-04-08T17:02:23;102637.16;;;12.32;93.51
53514;BME280;39768;54.148;12.174;2023-04-08T17:06:25;102641.47;;;12.18;93.89
53514;BME280;39768;54.148;12.174;2023-04-08T17:10:27;102658.91;;;11.88;96.08
53514;BME280;39768;54.148;12.174;2023-04-08T17:14:29;102652.34;;;12.41;93.77
53514;BME280;39768;54.148;12.174;2023-04-08T17:18:30;102658.16;;;12.03;94.22
53514;BME280;39768;54.148;12.174;2023-04-08T17:22:32;102655.25;;;11.80;99.58
53514;BME280;39768;54.148;12.174;2023-04-08T17:26:33;102660.25;;;11.54;98.99
53514;BME280;39768;54.148;12.174;2023-04-08T17:30:34;102652.44;;;11.68;96.15
53514;BME280;39768;54.148;12.174;2023-04-08T17:34:36;102665.84;;;11.76;98.02
53514;BME280;39768;54.148;12.174;2023-04-08T17:38:38;102668.91;;;12.11;95.76
53514;BME280;39768;54.148;12.174;2023-04-08T17:42:40;102669.56;;;11.90;96.17
53514;BME280;39768;54.148;12.174;2023-04-08T17:46:41;102675.84;;;11.95;95.27
53514;BME280;39768;54.148;12.174;2023-04-08T17:50:43;102677.66;;;11.99;92.95
53514;BME280;39768;54.148;12.174;2023-04-08T17:54:44;102680.25;;;11.28;95.51
53514;BME280;39768;54.148;12.174;2023-04-08T17:58:46;102682.47;;;10.98;100.00
53514;BME280;39768;54.148;12.174;2023-04-08T18:02:48;102686.72;;;12.13;92.73
53514;BME280;39768;54.148;12.174;2023-04-08T18:06:50;102690.25;;;12.12;91.18
53514;BME280;39768;54.148;12.174;2023-04-08T18:10:52;102693.09;;;11.59;92.36
53514;BME280;39768;54.148;12.174;2023-04-08T18:14:53;102686.44;;;11.92;93.80
53514;BME280;39768;54.148;12.174;2023-04-08T18:18:54;102696.63;;;11.57;93.75
53514;BME280;39768;54.148;12.174;2023-04-08T18:22:56;102692.88;;;11.43;97.71
53514;BME280;39768;54.148;12.174;2023-04-08T18:26:57;102700.78;;;11.38;98.63
53514;BME280;39768;54.148;12.174;2023-04-08T18:31:05;102697.53;;;11.60;97.05
53514;BME280;39768;54.148;12.174;2023-04-08T18:35:07;102699.66;;;11.83;93.95
53514;BME280;39768;54.148;12.174;2023-04-08T18:39:08;102697.97;;;11.29;98.10
53514;BME280;39768;54.148;12.174;2023-04-08T18:43:10;102699.19;;;11.51;98.90
53514;BME280;39768;54.148;12.174;2023-04-08T18:47:13;102701.47;;;11.23;98.02
53514;BME280;39768;54.148;12.174;2023-04-08T18:51:15;102718.75;;;10.46;100.00
53514;BME280;39768;54.148;12.174;2023-04-08T18:55:19;102722.47;;;10.55;100.00
53514;BME280;39768;54.148;12.174;2023-04-08T18:59:21;102713.22;;;10.83;100.00
53514;BME280;39768;54.148;12.174;2023-04-08T19:03:23;102725.69;;;10.36;100.00
53514;BME280;39768;54.148;12.174;2023-04-08T19:07:27;102716.84;;;10.37;100.00
53514;BME280;39768;54.148;12.174;2023-04-08T19:11:29;102729.06;;;10.29;100.00
53514;BME280;39768;54.148;12.174;2023-04-08T19:15:30;102730.16;;;10.39;100.00
53514;BME280;39768;54.148;12.174;2023-04-08T19:19:32;102727.69;;;10.06;100.00
53514;BME280;39768;54.148;12.174;2023-04-08T19:23:33;102728.44;;;10.42;100.00
53514;BME280;39768;54.148;12.174;2023-04-08T19:27:34;102726.66;;;10.91;100.00
53514;BME280;39768;54.148;12.174;2023-04-08T19:31:36;102720.00;;;11.19;100.00
53514;BME280;39768;54.148;12.174;2023-04-08T19:35:38;102715.84;;;11.36;100.00
53514;BME280;39768;54.148;12.174;2023-04-08T19:39:39;102720.41;;;10.39;100.00
53514;BME280;39768;54.148;12.174;2023-04-08T19:43:41;102718.41;;;10.28;100.00
53514;BME280;39768;54.148;12.174;2023-04-08T19:47:42;102712.16;;;10.22;100.00
53514;BME280;39768;54.148;12.174;2023-04-08T19:51:45;102711.28;;;10.25;100.00
53514;BME280;39768;54.148;12.174;2023-04-08T19:55:46;102717.16;;;10.10;100.00
53514;BME280;39768;54.148;12.174;2023-04-08T19:59:47;102718.91;;;10.55;100.00
53514;BME280;39768;54.148;12.174;2023-04-08T20:03:49;102718.66;;;9.98;100.00
53514;BME280;39768;54.148;12.174;2023-04-08T20:07:53;102714.16;;;10.36;100.00
53514;BME280;39768;54.148;12.174;2023-04-08T20:11:54;102719.41;;;10.33;100.00
53514;BME280;39768;54.148;12.174;2023-04-08T20:15:55;102721.28;;;10.38;100.00
53514;BME280;39768;54.148;12.174;2023-04-08T20:19:58;102718.63;;;10.89;100.00
53514;BME280;39768;54.148;12.174;2023-04-08T20:23:59;102723.97;;;10.89;100.00
53514;BME280;39768;54.148;12.174;2023-04-08T20:28:01;102720.69;;;11.66;100.00
53514;BME280;39768;54.148;12.174;2023-04-08T20:32:02;102717.34;;;11.19;98.47
53514;BME280;39768;54.148;12.174;2023-04-08T20:36:04;102719.41;;;10.81;100.00
53514;BME280;39768;54.148;12.174;2023-04-08T20:40:06;102725.63;;;10.83;100.00
53514;BME280;39768;54.148;12.174;2023-04-08T20:44:07;102731.31;;;10.54;100.00
53514;BME280;39768;54.148;12.174;2023-04-08T20:48:10;102730.91;;;11.37;99.32
53514;BME280;39768;54.148;12.174;2023-04-08T20:52:12;102737.88;;;11.29;99.36